DLH58DR EGLL-EDDF
Flight info
| Callsign | DLH58DR |
|---|---|
| Flight time | N/A |
| Altitude | 35000 |
| Route | BPK Q295 MATCH DCT REDFA DCT TACHA DCT NOLRU DCT DIXAT DIXAT1A |
| Aircraft | A333/H-SDE3GHIJ2J3J5M1RVWXY/LB2D1 |
Departure
| Time | 2026-05-05 19:35 |
|---|---|
| Airport | London Heathrow Airport (EGLL) |
Arrival
| Time | N/A |
|---|---|
| Airport | Frankfurt Main Airport (EDDF) |
| Time | Latitude | Longitude | Altitude | Speed | Heading |
|---|---|---|---|---|---|
| 2026-05-05 19:01 | 51.47187 | -0.44202 | 92 ft | 0 kts | 268° |
| 2026-05-05 19:17 | 51.47187 | -0.44201 | 92 ft | 2 kts | 268° |
| 2026-05-05 19:17 | 51.47187 | -0.44171 | 92 ft | 3 kts | 268° |
| 2026-05-05 19:17 | 51.47188 | -0.44145 | 92 ft | 3 kts | 271° |
| 2026-05-05 19:17 | 51.47190 | -0.44115 | 93 ft | 3 kts | 249° |
| 2026-05-05 19:18 | 51.47197 | -0.44089 | 94 ft | 3 kts | 248° |
| 2026-05-05 19:18 | 51.47205 | -0.44060 | 94 ft | 3 kts | 215° |
| 2026-05-05 19:18 | 51.47217 | -0.44050 | 94 ft | 0 kts | 192° |
| 2026-05-05 19:21 | 51.47209 | -0.44053 | 94 ft | 6 kts | 191° |
| 2026-05-05 19:21 | 51.47119 | -0.44058 | 94 ft | 17 kts | 179° |
| 2026-05-05 19:21 | 51.47004 | -0.44055 | 95 ft | 17 kts | 180° |
| 2026-05-05 19:22 | 51.46884 | -0.44054 | 96 ft | 17 kts | 179° |
| 2026-05-05 19:22 | 51.46757 | -0.44054 | 92 ft | 20 kts | 180° |
| 2026-05-05 19:22 | 51.46668 | -0.44168 | 91 ft | 17 kts | 258° |
| 2026-05-05 19:22 | 51.46665 | -0.44193 | 91 ft | 0 kts | 265° |
| 2026-05-05 19:23 | 51.46665 | -0.44195 | 92 ft | 2 kts | 266° |
| 2026-05-05 19:23 | 51.46666 | -0.44257 | 92 ft | 9 kts | 270° |
| 2026-05-05 19:23 | 51.46666 | -0.44450 | 95 ft | 23 kts | 270° |
| 2026-05-05 19:23 | 51.46667 | -0.44706 | 98 ft | 23 kts | 269° |
| 2026-05-05 19:24 | 51.46664 | -0.44959 | 98 ft | 23 kts | 269° |
| 2026-05-05 19:24 | 51.46663 | -0.45225 | 97 ft | 25 kts | 270° |
| 2026-05-05 19:24 | 51.46663 | -0.45512 | 91 ft | 27 kts | 269° |
| 2026-05-05 19:24 | 51.46661 | -0.45814 | 90 ft | 27 kts | 269° |
| 2026-05-05 19:25 | 51.46660 | -0.46110 | 92 ft | 26 kts | 270° |
| 2026-05-05 19:25 | 51.46660 | -0.46372 | 100 ft | 21 kts | 270° |
| 2026-05-05 19:25 | 51.46659 | -0.46602 | 101 ft | 20 kts | 270° |
| 2026-05-05 19:25 | 51.46659 | -0.46830 | 101 ft | 21 kts | 269° |
| 2026-05-05 19:26 | 51.46658 | -0.47057 | 98 ft | 19 kts | 270° |
| 2026-05-05 19:26 | 51.46658 | -0.47148 | 96 ft | 0 kts | 270° |
| 2026-05-05 19:26 | 51.46658 | -0.47156 | 96 ft | 2 kts | 270° |
| 2026-05-05 19:26 | 51.46658 | -0.47163 | 96 ft | 0 kts | 270° |
| 2026-05-05 19:27 | 51.46658 | -0.47178 | 95 ft | 3 kts | 270° |
| 2026-05-05 19:27 | 51.46657 | -0.47272 | 94 ft | 13 kts | 269° |
| 2026-05-05 19:27 | 51.46656 | -0.47444 | 92 ft | 18 kts | 269° |
| 2026-05-05 19:28 | 51.46655 | -0.47666 | 93 ft | 21 kts | 270° |
| 2026-05-05 19:28 | 51.46654 | -0.47887 | 92 ft | 19 kts | 269° |
| 2026-05-05 19:28 | 51.46653 | -0.48064 | 98 ft | 8 kts | 270° |
| 2026-05-05 19:28 | 51.46653 | -0.48084 | 95 ft | 0 kts | 270° |
| 2026-05-05 19:29 | 51.46653 | -0.48097 | 98 ft | 2 kts | 270° |
| 2026-05-05 19:29 | 51.46654 | -0.48128 | 96 ft | 4 kts | 270° |
| 2026-05-05 19:29 | 51.46654 | -0.48179 | 99 ft | 6 kts | 270° |
| 2026-05-05 19:29 | 51.46654 | -0.48252 | 97 ft | 8 kts | 270° |
| 2026-05-05 19:30 | 51.46653 | -0.48310 | 98 ft | 0 kts | 269° |
| 2026-05-05 19:30 | 51.46653 | -0.48312 | 98 ft | 0 kts | 269° |
| 2026-05-05 19:30 | 51.46653 | -0.48316 | 98 ft | 1 kts | 269° |
| 2026-05-05 19:31 | 51.46652 | -0.48400 | 100 ft | 12 kts | 269° |
| 2026-05-05 19:31 | 51.46652 | -0.48481 | 98 ft | 10 kts | 270° |
| 2026-05-05 19:31 | 51.46652 | -0.48562 | 101 ft | 0 kts | 270° |
| 2026-05-05 19:32 | 51.46652 | -0.48568 | 100 ft | 2 kts | 270° |
| 2026-05-05 19:33 | 51.46652 | -0.48593 | 98 ft | 2 kts | 270° |
| 2026-05-05 19:33 | 51.46651 | -0.48641 | 100 ft | 6 kts | 268° |
| 2026-05-05 19:33 | 51.46625 | -0.48735 | 100 ft | 12 kts | 222° |
| 2026-05-05 19:33 | 51.46526 | -0.48775 | 97 ft | 16 kts | 165° |
| 2026-05-05 19:34 | 51.46479 | -0.48665 | 100 ft | 11 kts | 95° |
| 2026-05-05 19:34 | 51.46479 | -0.48652 | 100 ft | 1 kts | 93° |
| 2026-05-05 19:34 | 51.46478 | -0.48433 | 98 ft | 53 kts | 89° |
| 2026-05-05 19:35 | 51.46479 | -0.45521 | 269 ft | 194 kts | 89° |
| 2026-05-05 19:35 | 51.46455 | -0.43174 | 1011 ft | 227 kts | 90° |
| 2026-05-05 19:35 | 51.46507 | -0.40522 | 1911 ft | 246 kts | 82° |
| 2026-05-05 19:35 | 51.47127 | -0.38054 | 2725 ft | 242 kts | 49° |
| 2026-05-05 19:36 | 51.48449 | -0.36338 | 3403 ft | 248 kts | 34° |
| 2026-05-05 19:36 | 51.49871 | -0.34733 | 4255 ft | 251 kts | 36° |
| 2026-05-05 19:36 | 51.51212 | -0.32914 | 5085 ft | 255 kts | 48° |
| 2026-05-05 19:36 | 51.52110 | -0.30421 | 5756 ft | 262 kts | 64° |
| 2026-05-05 19:37 | 51.52781 | -0.27680 | 5980 ft | 265 kts | 68° |
| 2026-05-05 19:37 | 51.53401 | -0.24875 | 5995 ft | 266 kts | 68° |
| 2026-05-05 19:37 | 51.54242 | -0.22287 | 5969 ft | 264 kts | 50° |
| 2026-05-05 19:37 | 51.55640 | -0.20435 | 5938 ft | 261 kts | 28° |
| 2026-05-05 19:38 | 51.57290 | -0.19188 | 5938 ft | 262 kts | 22° |
| 2026-05-05 19:38 | 51.58986 | -0.18124 | 6240 ft | 262 kts | 18° |
| 2026-05-05 19:38 | 51.60748 | -0.17267 | 6921 ft | 266 kts | 15° |
| 2026-05-05 19:38 | 51.62529 | -0.16452 | 7830 ft | 267 kts | 15° |
| 2026-05-05 19:39 | 51.64334 | -0.15626 | 8698 ft | 272 kts | 14° |
| 2026-05-05 19:39 | 51.66165 | -0.14782 | 9555 ft | 276 kts | 14° |
| 2026-05-05 19:39 | 51.68026 | -0.13920 | 10312 ft | 283 kts | 14° |
| 2026-05-05 19:39 | 51.69993 | -0.13007 | 10665 ft | 304 kts | 14° |
| 2026-05-05 19:40 | 51.72080 | -0.11935 | 10953 ft | 326 kts | 21° |
| 2026-05-05 19:40 | 51.74037 | -0.09869 | 11232 ft | 349 kts | 44° |
| 2026-05-05 19:40 | 51.75359 | -0.06541 | 11653 ft | 366 kts | 66° |
| 2026-05-05 19:40 | 51.76080 | -0.02551 | 12301 ft | 374 kts | 78° |
| 2026-05-05 19:41 | 51.76471 | 0.01629 | 13039 ft | 378 kts | 83° |
| 2026-05-05 19:41 | 51.76717 | 0.05865 | 13813 ft | 382 kts | 84° |
| 2026-05-05 19:41 | 51.76937 | 0.10184 | 14426 ft | 386 kts | 84° |
| 2026-05-05 19:41 | 51.77179 | 0.14516 | 14839 ft | 388 kts | 83° |
| 2026-05-05 19:42 | 51.77459 | 0.18850 | 14955 ft | 388 kts | 83° |
| 2026-05-05 19:42 | 51.77804 | 0.23196 | 15129 ft | 391 kts | 79° |
| 2026-05-05 19:42 | 51.78368 | 0.27518 | 15797 ft | 394 kts | 76° |
| 2026-05-05 19:42 | 51.78999 | 0.31826 | 16517 ft | 395 kts | 75° |
| 2026-05-05 19:43 | 51.79663 | 0.36096 | 17186 ft | 398 kts | 75° |
| 2026-05-05 19:43 | 51.80360 | 0.40450 | 17846 ft | 401 kts | 75° |
| 2026-05-05 19:43 | 51.81067 | 0.44825 | 18414 ft | 405 kts | 75° |
| 2026-05-05 19:43 | 51.81788 | 0.49285 | 18742 ft | 415 kts | 75° |
| 2026-05-05 19:44 | 51.82511 | 0.53810 | 19360 ft | 415 kts | 75° |
| 2026-05-05 19:44 | 51.83230 | 0.58349 | 19908 ft | 418 kts | 75° |
| 2026-05-05 19:44 | 51.83497 | 0.60038 | 20075 ft | 420 kts | 75° |
| 2026-05-05 19:45 | 51.83740 | 0.61585 | 20212 ft | 422 kts | 75° |
| 2026-05-05 19:45 | 51.84458 | 0.66156 | 20714 ft | 425 kts | 76° |
| 2026-05-05 19:45 | 51.85193 | 0.70860 | 21220 ft | 428 kts | 76° |
| 2026-05-05 19:46 | 51.85914 | 0.75492 | 21696 ft | 431 kts | 76° |
| 2026-05-05 19:46 | 51.86647 | 0.80211 | 22179 ft | 435 kts | 76° |
| 2026-05-05 19:46 | 51.87394 | 0.85030 | 22640 ft | 438 kts | 76° |